sensor_id;sensor_type;location;lat;lon;timestamp;temperature;humidity
49861;DHT22;35761;48.826;9.238;2023-04-09T00:01:19;8.10;44.70
49861;DHT22;35761;48.826;9.238;2023-04-09T00:03:50;8.10;45.00
49861;DHT22;35761;48.826;9.238;2023-04-09T00:06:21;8.10;45.20
49861;DHT22;35761;48.826;9.238;2023-04-09T00:08:52;8.10;45.40
49861;DHT22;35761;48.826;9.238;2023-04-09T00:11:23;8.00;45.60
49861;DHT22;35761;48.826;9.238;2023-04-09T00:13:56;8.00;45.80
49861;DHT22;35761;48.826;9.238;2023-04-09T00:19:00;8.00;46.30
49861;DHT22;35761;48.826;9.238;2023-04-09T00:21:30;8.00;46.40
49861;DHT22;35761;48.826;9.238;2023-04-09T00:24:01;8.00;46.60
49861;DHT22;35761;48.826;9.238;2023-04-09T00:26:31;8.00;46.70
49861;DHT22;35761;48.826;9.238;2023-04-09T00:29:02;8.00;46.80
49861;DHT22;35761;48.826;9.238;2023-04-09T00:31:35;8.00;47.00
49861;DHT22;35761;48.826;9.238;2023-04-09T00:34:05;7.90;47.20
49861;DHT22;35761;48.826;9.238;2023-04-09T00:36:36;7.90;47.20
49861;DHT22;35761;48.826;9.238;2023-04-09T00:39:08;7.90;47.40
49861;DHT22;35761;48.826;9.238;2023-04-09T00:41:38;7.90;47.50
49861;DHT22;35761;48.826;9.238;2023-04-09T00:44:09;7.90;47.60
49861;DHT22;35761;48.826;9.238;2023-04-09T00:46:48;7.90;47.50
49861;DHT22;35761;48.826;9.238;2023-04-09T00:49:19;7.90;47.70
49861;DHT22;35761;48.826;9.238;2023-04-09T00:51:51;7.90;47.50
49861;DHT22;35761;48.826;9.238;2023-04-09T00:54:22;7.90;47.50
49861;DHT22;35761;48.826;9.238;2023-04-09T00:56:52;7.90;47.80
49861;DHT22;35761;48.826;9.238;2023-04-09T00:59:24;7.90;48.00
49861;DHT22;35761;48.826;9.238;2023-04-09T01:01:57;7.80;48.00
49861;DHT22;35761;48.826;9.238;2023-04-09T01:04:28;7.80;48.40
49861;DHT22;35761;48.826;9.238;2023-04-09T01:07:06;7.80;48.80
49861;DHT22;35761;48.826;9.238;2023-04-09T01:09:42;7.80;49.10
49861;DHT22;35761;48.826;9.238;2023-04-09T01:12:25;7.80;49.30
49861;DHT22;35761;48.826;9.238;2023-04-09T01:15:04;7.80;49.50
49861;DHT22;35761;48.826;9.238;2023-04-09T01:17:45;7.70;49.50
49861;DHT22;35761;48.826;9.238;2023-04-09T01:20:26;7.80;49.70
49861;DHT22;35761;48.826;9.238;2023-04-09T01:23:06;7.70;49.80
49861;DHT22;35761;48.826;9.238;2023-04-09T01:25:57;7.70;49.60
49861;DHT22;35761;48.826;9.238;2023-04-09T01:28:45;7.70;50.10
49861;DHT22;35761;48.826;9.238;2023-04-09T01:31:19;7.70;49.30
49861;DHT22;35761;48.826;9.238;2023-04-09T01:34:00;7.70;49.50
49861;DHT22;35761;48.826;9.238;2023-04-09T01:36:31;7.70;50.00
49861;DHT22;35761;48.826;9.238;2023-04-09T01:39:04;7.70;49.90
49861;DHT22;35761;48.826;9.238;2023-04-09T01:41:38;7.70;50.00
49861;DHT22;35761;48.826;9.238;2023-04-09T01:44:12;7.70;49.90
49861;DHT22;35761;48.826;9.238;2023-04-09T01:46:46;7.70;49.70
49861;DHT22;35761;48.826;9.238;2023-04-09T01:49:17;7.70;49.80
49861;DHT22;35761;48.826;9.238;2023-04-09T01:51:48;7.70;49.70
49861;DHT22;35761;48.826;9.238;2023-04-09T01:54:19;7.70;49.80
49861;DHT22;35761;48.826;9.238;2023-04-09T01:56:49;7.70;50.10
49861;DHT22;35761;48.826;9.238;2023-04-09T01:59:22;7.70;50.20
49861;DHT22;35761;48.826;9.238;2023-04-09T02:01:57;7.60;50.40
49861;DHT22;35761;48.826;9.238;2023-04-09T02:04:32;7.60;50.50
49861;DHT22;35761;48.826;9.238;2023-04-09T02:07:07;7.60;50.70
49861;DHT22;35761;48.826;9.238;2023-04-09T02:09:41;7.60;50.60
49861;DHT22;35761;48.826;9.238;2023-04-09T02:12:16;7.60;50.40
49861;DHT22;35761;48.826;9.238;2023-04-09T02:14:51;7.60;50.50
49861;DHT22;35761;48.826;9.238;2023-04-09T02:17:21;7.60;50.40
49861;DHT22;35761;48.826;9.238;2023-04-09T02:19:52;7.60;50.30
49861;DHT22;35761;48.826;9.238;2023-04-09T02:22:22;7.60;50.30
49861;DHT22;35761;48.826;9.238;2023-04-09T02:24:53;7.60;50.40
49861;DHT22;35761;48.826;9.238;2023-04-09T02:27:23;7.60;50.40
49861;DHT22;35761;48.826;9.238;2023-04-09T02:29:56;7.60;50.40
49861;DHT22;35761;48.826;9.238;2023-04-09T02:32:27;7.60;50.60
49861;DHT22;35761;48.826;9.238;2023-04-09T02:34:57;7.50;50.90
49861;DHT22;35761;48.826;9.238;2023-04-09T02:37:28;7.40;50.90
49861;DHT22;35761;48.826;9.238;2023-04-09T02:39:58;7.40;51.20
49861;DHT22;35761;48.826;9.238;2023-04-09T02:42:30;7.40;51.30
49861;DHT22;35761;48.826;9.238;2023-04-09T02:45:04;7.40;51.40
49861;DHT22;35761;48.826;9.238;2023-04-09T02:47:35;7.40;51.50
49861;DHT22;35761;48.826;9.238;2023-04-09T02:50:07;7.30;51.70
49861;DHT22;35761;48.826;9.238;2023-04-09T02:52:45;7.30;51.80
49861;DHT22;35761;48.826;9.238;2023-04-09T02:55:17;7.30;51.90
49861;DHT22;35761;48.826;9.238;2023-04-09T02:57:47;7.30;52.00
49861;DHT22;35761;48.826;9.238;2023-04-09T03:00:20;7.30;52.10
49861;DHT22;35761;48.826;9.238;2023-04-09T03:02:51;7.30;52.10
49861;DHT22;35761;48.826;9.238;2023-04-09T03:05:22;7.30;52.30
49861;DHT22;35761;48.826;9.238;2023-04-09T03:07:53;7.30;52.60
49861;DHT22;35761;48.826;9.238;2023-04-09T03:10:23;7.30;52.80
49861;DHT22;35761;48.826;9.238;2023-04-09T03:12:54;7.30;52.80
49861;DHT22;35761;48.826;9.238;2023-04-09T03:15:27;7.20;53.00
49861;DHT22;35761;48.826;9.238;2023-04-09T03:17:58;7.20;53.20
49861;DHT22;35761;48.826;9.238;2023-04-09T03:20:29;7.30;53.40
49861;DHT22;35761;48.826;9.238;2023-04-09T03:22:59;7.20;53.30
49861;DHT22;35761;48.826;9.238;2023-04-09T03:25:36;7.20;53.50
49861;DHT22;35761;48.826;9.238;2023-04-09T03:28:13;7.20;53.70
49861;DHT22;35761;48.826;9.238;2023-04-09T03:30:53;7.20;54.00
49861;DHT22;35761;48.826;9.238;2023-04-09T03:33:23;7.20;53.90
49861;DHT22;35761;48.826;9.238;2023-04-09T03:35:57;7.20;54.00
49861;DHT22;35761;48.826;9.238;2023-04-09T03:38:47;7.20;54.00
49861;DHT22;35761;48.826;9.238;2023-04-09T03:41:25;7.20;54.30
49861;DHT22;35761;48.826;9.238;2023-04-09T03:43:59;7.20;54.30
49861;DHT22;35761;48.826;9.238;2023-04-09T03:46:38;7.20;54.50
49861;DHT22;35761;48.826;9.238;2023-04-09T03:49:12;7.20;54.60
49861;DHT22;35761;48.826;9.238;2023-04-09T03:51:44;7.20;54.60
49861;DHT22;35761;48.826;9.238;2023-04-09T03:54:15;7.20;54.60
49861;DHT22;35761;48.826;9.238;2023-04-09T03:56:46;7.20;54.60
49861;DHT22;35761;48.826;9.238;2023-04-09T03:59:21;7.10;54.60
49861;DHT22;35761;48.826;9.238;2023-04-09T04:01:54;7.10;54.90
49861;DHT22;35761;48.826;9.238;2023-04-09T04:04:25;7.20;54.90
49861;DHT22;35761;48.826;9.238;2023-04-09T04:06:57;7.10;54.80
49861;DHT22;35761;48.826;9.238;2023-04-09T04:09:31;7.10;55.00
49861;DHT22;35761;48.826;9.238;2023-04-09T04:12:07;7.10;55.10
49861;DHT22;35761;48.826;9.238;2023-04-09T04:15:10;7.10;55.30
49861;DHT22;35761;48.826;9.238;2023-04-09T04:17:51;7.10;55.40
49861;DHT22;35761;48.826;9.238;2023-04-09T04:20:48;7.10;55.30
49861;DHT22;35761;48.826;9.238;2023-04-09T04:23:18;7.00;55.30
49861;DHT22;35761;48.826;9.238;2023-04-09T04:26:01;7.00;55.40
49861;DHT22;35761;48.826;9.238;2023-04-09T04:28:34;7.00;55.30
49861;DHT22;35761;48.826;9.238;2023-04-09T04:31:07;7.00;55.40
49861;DHT22;35761;48.826;9.238;2023-04-09T04:33:42;7.00;55.50
49861;DHT22;35761;48.826;9.238;2023-04-09T04:36:14;7.00;55.60
49861;DHT22;35761;48.826;9.238;2023-04-09T04:38:48;7.00;55.60
49861;DHT22;35761;48.826;9.238;2023-04-09T04:41:30;7.00;55.40
49861;DHT22;35761;48.826;9.238;2023-04-09T04:44:09;7.00;55.60
49861;DHT22;35761;48.826;9.238;2023-04-09T04:46:40;7.00;55.60
49861;DHT22;35761;48.826;9.238;2023-04-09T04:49:13;7.00;55.80
49861;DHT22;35761;48.826;9.238;2023-04-09T04:51:46;7.00;55.90
49861;DHT22;35761;48.826;9.238;2023-04-09T04:54:17;7.00;55.90
49861;DHT22;35761;48.826;9.238;2023-04-09T04:56:51;7.00;55.90
49861;DHT22;35761;48.826;9.238;2023-04-09T04:59:36;7.00;55.90
49861;DHT22;35761;48.826;9.238;2023-04-09T05:02:09;7.00;56.10
49861;DHT22;35761;48.826;9.238;2023-04-09T05:05:06;7.00;56.10
49861;DHT22;35761;48.826;9.238;2023-04-09T05:07:43;7.00;56.20
49861;DHT22;35761;48.826;9.238;2023-04-09T05:10:14;7.00;56.10
49861;DHT22;35761;48.826;9.238;2023-04-09T05:12:45;7.00;56.20
49861;DHT22;35761;48.826;9.238;2023-04-09T05:15:37;7.00;56.20
49861;DHT22;35761;48.826;9.238;2023-04-09T05:18:09;7.00;56.30
49861;DHT22;35761;48.826;9.238;2023-04-09T05:20:42;7.00;56.60
49861;DHT22;35761;48.826;9.238;2023-04-09T05:23:12;6.90;56.70
49861;DHT22;35761;48.826;9.238;2023-04-09T05:25:47;7.00;56.90
49861;DHT22;35761;48.826;9.238;2023-04-09T05:28:33;7.00;57.10
49861;DHT22;35761;48.826;9.238;2023-04-09T05:31:12;7.00;57.10
49861;DHT22;35761;48.826;9.238;2023-04-09T05:33:51;7.00;57.10
49861;DHT22;35761;48.826;9.238;2023-04-09T05:36:34;7.00;57.40
49861;DHT22;35761;48.826;9.238;2023-04-09T05:39:04;6.90;57.60
49861;DHT22;35761;48.826;9.238;2023-04-09T05:41:35;7.00;57.80
49861;DHT22;35761;48.826;9.238;2023-04-09T05:44:30;7.00;57.90
49861;DHT22;35761;48.826;9.238;2023-04-09T05:47:08;6.90;58.10
49861;DHT22;35761;48.826;9.238;2023-04-09T05:49:49;7.00;58.30
49861;DHT22;35761;48.826;9.238;2023-04-09T05:52:22;7.00;58.30
49861;DHT22;35761;48.826;9.238;2023-04-09T05:54:53;7.00;58.40
49861;DHT22;35761;48.826;9.238;2023-04-09T05:57:36;7.00;58.70
49861;DHT22;35761;48.826;9.238;2023-04-09T06:00:09;7.10;58.90
49861;DHT22;35761;48.826;9.238;2023-04-09T06:02:43;7.10;58.90
49861;DHT22;35761;48.826;9.238;2023-04-09T06:05:14;7.10;59.10
49861;DHT22;35761;48.826;9.238;2023-04-09T06:07:49;7.20;59.10
49861;DHT22;35761;48.826;9.238;2023-04-09T06:10:19;7.30;58.50
49861;DHT22;35761;48.826;9.238;2023-04-09T06:12:50;7.30;58.20
49861;DHT22;35761;48.826;9.238;2023-04-09T06:15:21;7.30;58.00
49861;DHT22;35761;48.826;9.238;2023-04-09T06:17:53;7.40;57.60
49861;DHT22;35761;48.826;9.238;2023-04-09T06:20:25;7.40;57.10
49861;DHT22;35761;48.826;9.238;2023-04-09T06:22:58;7.40;56.60
49861;DHT22;35761;48.826;9.238;2023-04-09T06:25:29;7.40;56.00
49861;DHT22;35761;48.826;9.238;2023-04-09T06:27:59;7.40;55.40
49861;DHT22;35761;48.826;9.238;2023-04-09T06:30:30;7.50;54.20
49861;DHT22;35761;48.826;9.238;2023-04-09T06:33:03;7.60;53.30
49861;DHT22;35761;48.826;9.238;2023-04-09T06:35:33;7.60;53.30
49861;DHT22;35761;48.826;9.238;2023-04-09T06:38:07;7.60;52.70
49861;DHT22;35761;48.826;9.238;2023-04-09T06:40:38;7.60;52.10
49861;DHT22;35761;48.826;9.238;2023-04-09T06:43:08;7.60;51.30
49861;DHT22;35761;48.826;9.238;2023-04-09T06:45:49;7.70;50.70
49861;DHT22;35761;48.826;9.238;2023-04-09T06:48:20;7.80;50.00
49861;DHT22;35761;48.826;9.238;2023-04-09T06:50:50;7.70;50.10
49861;DHT22;35761;48.826;9.238;2023-04-09T06:53:23;7.70;50.70
49861;DHT22;35761;48.826;9.238;2023-04-09T06:55:54;7.70;51.40
49861;DHT22;35761;48.826;9.238;2023-04-09T06:58:24;7.70;50.90
49861;DHT22;35761;48.826;9.238;2023-04-09T07:00:55;7.70;51.10
49861;DHT22;35761;48.826;9.238;2023-04-09T07:03:25;7.70;51.20
49861;DHT22;35761;48.826;9.238;2023-04-09T07:05:56;7.70;50.10
49861;DHT22;35761;48.826;9.238;2023-04-09T07:08:30;7.70;49.30
49861;DHT22;35761;48.826;9.238;2023-04-09T07:11:00;7.70;49.70
49861;DHT22;35761;48.826;9.238;2023-04-09T07:13:30;7.70;49.40
49861;DHT22;35761;48.826;9.238;2023-04-09T07:16:02;7.70;49.10
49861;DHT22;35761;48.826;9.238;2023-04-09T07:18:32;7.80;49.10
49861;DHT22;35761;48.826;9.238;2023-04-09T07:21:03;7.90;49.50
49861;DHT22;35761;48.826;9.238;2023-04-09T07:23:36;7.90;48.90
49861;DHT22;35761;48.826;9.238;2023-04-09T07:26:07;7.90;48.70
49861;DHT22;35761;48.826;9.238;2023-04-09T07:28:37;7.90;48.20
49861;DHT22;35761;48.826;9.238;2023-04-09T07:31:08;8.00;48.30
49861;DHT22;35761;48.826;9.238;2023-04-09T07:33:39;7.90;48.10
49861;DHT22;35761;48.826;9.238;2023-04-09T07:36:09;8.00;47.30
49861;DHT22;35761;48.826;9.238;2023-04-09T07:38:42;8.00;46.80
49861;DHT22;35761;48.826;9.238;2023-04-09T07:41:13;8.00;46.90
49861;DHT22;35761;48.826;9.238;2023-04-09T07:43:43;8.20;46.20
49861;DHT22;35761;48.826;9.238;2023-04-09T07:46:18;8.30;46.10
49861;DHT22;35761;48.826;9.238;2023-04-09T07:48:49;8.30;44.70
49861;DHT22;35761;48.826;9.238;2023-04-09T07:51:20;8.40;43.50
49861;DHT22;35761;48.826;9.238;2023-04-09T07:53:53;8.50;44.00
49861;DHT22;35761;48.826;9.238;2023-04-09T07:56:24;8.50;43.80
49861;DHT22;35761;48.826;9.238;2023-04-09T07:58:54;8.60;40.80
49861;DHT22;35761;48.826;9.238;2023-04-09T08:01:34;8.70;41.20
49861;DHT22;35761;48.826;9.238;2023-04-09T08:04:05;8.70;40.70
49861;DHT22;35761;48.826;9.238;2023-04-09T08:06:36;8.80;37.60
49861;DHT22;35761;48.826;9.238;2023-04-09T08:09:10;8.90;37.90
49861;DHT22;35761;48.826;9.238;2023-04-09T08:11:40;8.90;38.30
49861;DHT22;35761;48.826;9.238;2023-04-09T08:14:11;9.00;37.80
49861;DHT22;35761;48.826;9.238;2023-04-09T08:16:43;9.10;36.40
49861;DHT22;35761;48.826;9.238;2023-04-09T08:19:16;9.10;37.70
49861;DHT22;35761;48.826;9.238;2023-04-09T08:21:47;9.10;38.30
49861;DHT22;35761;48.826;9.238;2023-04-09T08:24:21;9.10;38.60
49861;DHT22;35761;48.826;9.238;2023-04-09T08:26:52;9.10;37.10
49861;DHT22;35761;48.826;9.238;2023-04-09T08:29:22;9.20;36.80
49861;DHT22;35761;48.826;9.238;2023-04-09T08:31:53;9.30;36.50
49861;DHT22;35761;48.826;9.238;2023-04-09T08:34:24;9.30;36.20
49861;DHT22;35761;48.826;9.238;2023-04-09T08:36:54;9.30;34.90
49861;DHT22;35761;48.826;9.238;2023-04-09T08:39:28;9.50;35.80
49861;DHT22;35761;48.826;9.238;2023-04-09T08:41:59;9.50;36.70
49861;DHT22;35761;48.826;9.238;2023-04-09T08:44:29;9.50;34.70
49861;DHT22;35761;48.826;9.238;2023-04-09T08:47:00;9.50;35.10
49861;DHT22;35761;48.826;9.238;2023-04-09T08:49:31;9.60;33.10
49861;DHT22;35761;48.826;9.238;2023-04-09T08:52:02;9.70;33.10
49861;DHT22;35761;48.826;9.238;2023-04-09T08:54:35;9.70;31.00
49861;DHT22;35761;48.826;9.238;2023-04-09T08:57:06;9.80;29.80
49861;DHT22;35761;48.826;9.238;2023-04-09T08:59:36;9.70;29.60
49861;DHT22;35761;48.826;9.238;2023-04-09T09:02:07;9.80;29.20
49861;DHT22;35761;48.826;9.238;2023-04-09T09:04:45;9.80;30.30
49861;DHT22;35761;48.826;9.238;2023-04-09T09:07:17;10.00;32.70
49861;DHT22;35761;48.826;9.238;2023-04-09T09:09:54;10.10;30.60
49861;DHT22;35761;48.826;9.238;2023-04-09T09:12:33;10.20;30.40
49861;DHT22;35761;48.826;9.238;2023-04-09T09:15:26;10.30;28.80
49861;DHT22;35761;48.826;9.238;2023-04-09T09:17:58;10.20;26.50
49861;DHT22;35761;48.826;9.238;2023-04-09T09:20:29;10.30;28.40
49861;DHT22;35761;48.826;9.238;2023-04-09T09:23:01;10.40;30.40
49861;DHT22;35761;48.826;9.238;2023-04-09T09:25:37;10.30;30.90
49861;DHT22;35761;48.826;9.238;2023-04-09T09:28:09;10.40;31.20
49861;DHT22;35761;48.826;9.238;2023-04-09T09:30:40;10.40;31.80
49861;DHT22;35761;48.826;9.238;2023-04-09T09:33:13;10.50;32.30
49861;DHT22;35761;48.826;9.238;2023-04-09T09:35:47;10.60;31.40
49861;DHT22;35761;48.826;9.238;2023-04-09T09:38:18;10.70;31.30
49861;DHT22;35761;48.826;9.238;2023-04-09T09:40:51;10.90;28.80
49861;DHT22;35761;48.826;9.238;2023-04-09T09:43:22;10.80;28.70
49861;DHT22;35761;48.826;9.238;2023-04-09T09:45:53;10.80;29.60
49861;DHT22;35761;48.826;9.238;2023-04-09T09:48:23;10.80;30.20
49861;DHT22;35761;48.826;9.238;2023-04-09T09:50:54;10.80;31.20
49861;DHT22;35761;48.826;9.238;2023-04-09T09:53:25;10.90;31.10
49861;DHT22;35761;48.826;9.238;2023-04-09T09:56:03;10.90;31.10
49861;DHT22;35761;48.826;9.238;2023-04-09T09:58:36;11.00;30.80
49861;DHT22;35761;48.826;9.238;2023-04-09T10:01:12;11.10;30.20
49861;DHT22;35761;48.826;9.238;2023-04-09T10:03:43;11.10;30.30
49861;DHT22;35761;48.826;9.238;2023-04-09T10:06:15;11.30;30.20
49861;DHT22;35761;48.826;9.238;2023-04-09T10:08:47;11.40;30.10
49861;DHT22;35761;48.826;9.238;2023-04-09T10:11:21;11.30;29.30
49861;DHT22;35761;48.826;9.238;2023-04-09T10:13:56;11.30;28.90
49861;DHT22;35761;48.826;9.238;2023-04-09T10:16:27;11.30;29.30
49861;DHT22;35761;48.826;9.238;2023-04-09T10:18:58;11.20;28.30
49861;DHT22;35761;48.826;9.238;2023-04-09T10:21:39;11.30;28.90
49861;DHT22;35761;48.826;9.238;2023-04-09T10:24:11;11.50;27.30
49861;DHT22;35761;48.826;9.238;2023-04-09T10:26:44;11.60;26.40
49861;DHT22;35761;48.826;9.238;2023-04-09T10:29:16;11.60;25.90
49861;DHT22;35761;48.826;9.238;2023-04-09T10:32:04;11.70;27.10
49861;DHT22;35761;48.826;9.238;2023-04-09T10:34:38;11.80;26.70
49861;DHT22;35761;48.826;9.238;2023-04-09T10:37:15;11.80;24.30
49861;DHT22;35761;48.826;9.238;2023-04-09T10:39:48;12.00;24.20
49861;DHT22;35761;48.826;9.238;2023-04-09T10:42:23;12.00;21.40
49861;DHT22;35761;48.826;9.238;2023-04-09T10:45:06;11.90;19.90
49861;DHT22;35761;48.826;9.238;2023-04-09T10:47:39;12.00;23.00
49861;DHT22;35761;48.826;9.238;2023-04-09T10:50:17;11.90;22.90
49861;DHT22;35761;48.826;9.238;2023-04-09T10:52:52;12.10;21.00
49861;DHT22;35761;48.826;9.238;2023-04-09T10:55:33;12.10;18.80
49861;DHT22;35761;48.826;9.238;2023-04-09T10:58:09;12.20;19.40
49861;DHT22;35761;48.826;9.238;2023-04-09T11:00:42;12.20;21.00
49861;DHT22;35761;48.826;9.238;2023-04-09T11:03:21;12.30;21.80
49861;DHT22;35761;48.826;9.238;2023-04-09T11:05:58;12.40;19.80
49861;DHT22;35761;48.826;9.238;2023-04-09T11:08:30;12.40;18.50
49861;DHT22;35761;48.826;9.238;2023-04-09T11:11:01;12.40;18.40
49861;DHT22;35761;48.826;9.238;2023-04-09T11:13:34;12.40;18.70
49861;DHT22;35761;48.826;9.238;2023-04-09T11:16:05;12.50;20.70
49861;DHT22;35761;48.826;9.238;2023-04-09T11:18:35;12.60;20.90
49861;DHT22;35761;48.826;9.238;2023-04-09T11:21:06;12.70;17.90
49861;DHT22;35761;48.826;9.238;2023-04-09T11:23:37;12.80;17.30
49861;DHT22;35761;48.826;9.238;2023-04-09T11:26:11;12.80;18.50
49861;DHT22;35761;48.826;9.238;2023-04-09T11:28:45;12.80;19.30
49861;DHT22;35761;48.826;9.238;2023-04-09T11:31:15;12.80;18.00
49861;DHT22;35761;48.826;9.238;2023-04-09T11:33:46;12.80;19.40
49861;DHT22;35761;48.826;9.238;2023-04-09T11:36:17;12.90;17.70
49861;DHT22;35761;48.826;9.238;2023-04-09T11:38:47;12.80;17.80
49861;DHT22;35761;48.826;9.238;2023-04-09T11:41:18;12.80;17.00
49861;DHT22;35761;48.826;9.238;2023-04-09T11:44:04;12.80;17.90
49861;DHT22;35761;48.826;9.238;2023-04-09T11:46:35;12.80;17.40
49861;DHT22;35761;48.826;9.238;2023-04-09T11:49:08;12.90;18.60
49861;DHT22;35761;48.826;9.238;2023-04-09T11:51:39;12.90;18.00
49861;DHT22;35761;48.826;9.238;2023-04-09T11:54:11;13.00;17.90
49861;DHT22;35761;48.826;9.238;2023-04-09T11:56:41;13.10;18.10
49861;DHT22;35761;48.826;9.238;2023-04-09T11:59:16;13.30;18.80
49861;DHT22;35761;48.826;9.238;2023-04-09T12:01:48;13.60;18.10
49861;DHT22;35761;48.826;9.238;2023-04-09T12:04:20;13.70;16.70
49861;DHT22;35761;48.826;9.238;2023-04-09T12:06:52;13.80;16.30
49861;DHT22;35761;48.826;9.238;2023-04-09T12:09:26;14.10;17.40
49861;DHT22;35761;48.826;9.238;2023-04-09T12:11:58;14.40;17.00
49861;DHT22;35761;48.826;9.238;2023-04-09T12:14:31;14.90;15.40
49861;DHT22;35761;48.826;9.238;2023-04-09T12:17:01;15.20;14.10
49861;DHT22;35761;48.826;9.238;2023-04-09T12:19:35;15.30;13.00
49861;DHT22;35761;48.826;9.238;2023-04-09T12:22:06;15.30;13.40
49861;DHT22;35761;48.826;9.238;2023-04-09T12:24:36;14.90;13.40
49861;DHT22;35761;48.826;9.238;2023-04-09T12:27:07;14.90;13.80
49861;DHT22;35761;48.826;9.238;2023-04-09T12:29:39;14.70;14.70
49861;DHT22;35761;48.826;9.238;2023-04-09T12:32:10;14.80;14.70
49861;DHT22;35761;48.826;9.238;2023-04-09T12:34:41;15.00;14.50
49861;DHT22;35761;48.826;9.238;2023-04-09T12:37:13;15.40;15.20
49861;DHT22;35761;48.826;9.238;2023-04-09T12:39:43;15.80;16.00
49861;DHT22;35761;48.826;9.238;2023-04-09T12:42:15;16.00;13.50
49861;DHT22;35761;48.826;9.238;2023-04-09T12:44:48;16.20;13.30
49861;DHT22;35761;48.826;9.238;2023-04-09T12:47:18;16.30;13.30
49861;DHT22;35761;48.826;9.238;2023-04-09T12:49:49;16.60;12.70
49861;DHT22;35761;48.826;9.238;2023-04-09T12:52:20;16.80;14.40
49861;DHT22;35761;48.826;9.238;2023-04-09T12:54:51;17.00;13.10
49861;DHT22;35761;48.826;9.238;2023-04-09T12:57:22;17.20;14.00
49861;DHT22;35761;48.826;9.238;2023-04-09T12:59:55;17.40;14.10
49861;DHT22;35761;48.826;9.238;2023-04-09T13:02:26;17.70;13.50
49861;DHT22;35761;48.826;9.238;2023-04-09T13:04:56;18.00;12.50
49861;DHT22;35761;48.826;9.238;2023-04-09T13:07:27;18.20;13.60
49861;DHT22;35761;48.826;9.238;2023-04-09T13:09:58;18.40;13.30
49861;DHT22;35761;48.826;9.238;2023-04-09T13:12:28;18.70;12.60
49861;DHT22;35761;48.826;9.238;2023-04-09T13:15:02;18.90;10.70
49861;DHT22;35761;48.826;9.238;2023-04-09T13:17:33;18.80;10.60
49861;DHT22;35761;48.826;9.238;2023-04-09T13:20:04;18.60;9.80
49861;DHT22;35761;48.826;9.238;2023-04-09T13:22:36;18.60;10.70
49861;DHT22;35761;48.826;9.238;2023-04-09T13:25:07;18.40;10.40
49861;DHT22;35761;48.826;9.238;2023-04-09T13:27:40;18.20;10.20
49861;DHT22;35761;48.826;9.238;2023-04-09T13:30:13;17.80;10.30
49861;DHT22;35761;48.826;9.238;2023-04-09T13:32:44;17.70;10.30
49861;DHT22;35761;48.826;9.238;2023-04-09T13:35:14;17.50;10.70
49861;DHT22;35761;48.826;9.238;2023-04-09T13:37:45;17.50;11.10
49861;DHT22;35761;48.826;9.238;2023-04-09T13:40:16;17.50;11.60
49861;DHT22;35761;48.826;9.238;2023-04-09T13:42:46;17.50;11.40
49861;DHT22;35761;48.826;9.238;2023-04-09T13:45:19;17.40;11.80
49861;DHT22;35761;48.826;9.238;2023-04-09T13:47:50;17.50;12.10
49861;DHT22;35761;48.826;9.238;2023-04-09T13:50:20;17.70;11.90
49861;DHT22;35761;48.826;9.238;2023-04-09T13:52:51;18.00;11.50
49861;DHT22;35761;48.826;9.238;2023-04-09T13:55:21;18.20;10.90
49861;DHT22;35761;48.826;9.238;2023-04-09T13:57:52;18.20;11.40
49861;DHT22;35761;48.826;9.238;2023-04-09T14:00:25;18.10;10.90
49861;DHT22;35761;48.826;9.238;2023-04-09T14:02:55;18.20;11.10
49861;DHT22;35761;48.826;9.238;2023-04-09T14:05:26;18.50;12.00
49861;DHT22;35761;48.826;9.238;2023-04-09T14:07:56;18.90;11.10
49861;DHT22;35761;48.826;9.238;2023-04-09T14:10:27;19.00;10.20
49861;DHT22;35761;48.826;9.238;2023-04-09T14:12:57;18.90;10.30
49861;DHT22;35761;48.826;9.238;2023-04-09T14:15:35;19.00;9.80
49861;DHT22;35761;48.826;9.238;2023-04-09T14:18:05;18.90;9.10
49861;DHT22;35761;48.826;9.238;2023-04-09T14:20:36;18.90;9.50
49861;DHT22;35761;48.826;9.238;2023-04-09T14:23:07;19.00;9.60
49861;DHT22;35761;48.826;9.238;2023-04-09T14:25:37;19.10;9.00
49861;DHT22;35761;48.826;9.238;2023-04-09T14:28:07;19.10;8.30
49861;DHT22;35761;48.826;9.238;2023-04-09T14:30:40;19.10;8.90
49861;DHT22;35761;48.826;9.238;2023-04-09T14:33:11;19.20;9.40
49861;DHT22;35761;48.826;9.238;2023-04-09T14:35:42;19.40;9.90
49861;DHT22;35761;48.826;9.238;2023-04-09T14:38:12;19.50;9.50
49861;DHT22;35761;48.826;9.238;2023-04-09T14:40:44;19.70;9.50
49861;DHT22;35761;48.826;9.238;2023-04-09T14:43:14;19.90;8.90
49861;DHT22;35761;48.826;9.238;2023-04-09T14:45:47;20.10;8.20
49861;DHT22;35761;48.826;9.238;2023-04-09T14:48:17;20.30;8.80
49861;DHT22;35761;48.826;9.238;2023-04-09T14:50:48;20.50;9.00
49861;DHT22;35761;48.826;9.238;2023-04-09T14:53:19;20.70;8.30
49861;DHT22;35761;48.826;9.238;2023-04-09T14:55:49;20.70;8.20
49861;DHT22;35761;48.826;9.238;2023-04-09T14:58:20;20.90;9.00
49861;DHT22;35761;48.826;9.238;2023-04-09T15:00:53;21.10;7.70
49861;DHT22;35761;48.826;9.238;2023-04-09T15:03:23;21.20;6.90
49861;DHT22;35761;48.826;9.238;2023-04-09T15:05:54;21.30;7.30
49861;DHT22;35761;48.826;9.238;2023-04-09T15:08:25;21.00;6.00
49861;DHT22;35761;48.826;9.238;2023-04-09T15:10:55;20.90;6.80
49861;DHT22;35761;48.826;9.238;2023-04-09T15:13:26;20.50;7.70
49861;DHT22;35761;48.826;9.238;2023-04-09T15:15:59;20.60;8.20
49861;DHT22;35761;48.826;9.238;2023-04-09T15:18:30;20.70;7.60
49861;DHT22;35761;48.826;9.238;2023-04-09T15:21:00;20.90;7.90
49861;DHT22;35761;48.826;9.238;2023-04-09T15:23:31;21.00;7.00
49861;DHT22;35761;48.826;9.238;2023-04-09T15:26:02;20.80;6.60
49861;DHT22;35761;48.826;9.238;2023-04-09T15:28:32;20.70;6.60
49861;DHT22;35761;48.826;9.238;2023-04-09T15:31:06;20.60;6.50
49861;DHT22;35761;48.826;9.238;2023-04-09T15:33:36;20.70;6.40
49861;DHT22;35761;48.826;9.238;2023-04-09T15:36:08;20.90;6.40
49861;DHT22;35761;48.826;9.238;2023-04-09T15:38:39;21.00;6.20
49861;DHT22;35761;48.826;9.238;2023-04-09T15:41:09;21.00;6.10
49861;DHT22;35761;48.826;9.238;2023-04-09T15:43:40;21.30;6.50
49861;DHT22;35761;48.826;9.238;2023-04-09T15:46:13;21.50;6.60
49861;DHT22;35761;48.826;9.238;2023-04-09T15:48:44;21.80;6.70
49861;DHT22;35761;48.826;9.238;2023-04-09T15:51:15;21.80;6.30
49861;DHT22;35761;48.826;9.238;2023-04-09T15:53:46;21.80;6.80
49861;DHT22;35761;48.826;9.238;2023-04-09T15:56:16;21.80;6.60
49861;DHT22;35761;48.826;9.238;2023-04-09T15:58:47;21.90;6.80
49861;DHT22;35761;48.826;9.238;2023-04-09T16:01:20;22.00;6.80
49861;DHT22;35761;48.826;9.238;2023-04-09T16:03:51;22.00;6.70
49861;DHT22;35761;48.826;9.238;2023-04-09T16:06:22;21.90;6.50
49861;DHT22;35761;48.826;9.238;2023-04-09T16:08:52;21.90;6.60
49861;DHT22;35761;48.826;9.238;2023-04-09T16:11:23;21.90;6.50
49861;DHT22;35761;48.826;9.238;2023-04-09T16:13:53;22.00;6.30
49861;DHT22;35761;48.826;9.238;2023-04-09T16:16:27;21.80;6.00
49861;DHT22;35761;48.826;9.238;2023-04-09T16:18:58;21.90;6.70
49861;DHT22;35761;48.826;9.238;2023-04-09T16:21:29;21.90;6.30